createdAt,value
2023-09-08T00:00:28.548Z,8.00
2023-09-08T00:02:55.413Z,8.47
2023-09-08T00:05:22.285Z,8.77
2023-09-08T00:08:44.241Z,10.33
2023-09-08T00:11:11.110Z,8.93
2023-09-08T00:13:38.374Z,9.13
2023-09-08T00:16:05.322Z,8.90
2023-09-08T00:18:32.404Z,8.10
2023-09-08T00:20:59.640Z,8.57
2023-09-08T00:23:28.341Z,9.80
2023-09-08T00:25:55.431Z,8.90
2023-09-08T00:28:22.287Z,8.50
2023-09-08T00:30:49.104Z,8.70
2023-09-08T00:33:16.078Z,9.97
2023-09-08T00:35:46.336Z,9.77
2023-09-08T00:38:13.175Z,9.40
2023-09-08T00:40:40.031Z,7.80
2023-09-08T00:43:06.816Z,7.77
2023-09-08T00:45:39.714Z,7.30
2023-09-08T00:48:07.078Z,7.60
2023-09-08T00:50:35.343Z,9.67
2023-09-08T00:53:02.517Z,7.43
2023-09-08T00:55:29.586Z,7.53
2023-09-08T00:57:56.668Z,7.97
2023-09-08T01:00:23.543Z,6.87
2023-09-08T01:02:50.438Z,6.70
2023-09-08T01:05:17.634Z,7.83
2023-09-08T01:07:46.021Z,7.77
2023-09-08T01:10:13.284Z,7.57
2023-09-08T01:12:40.777Z,8.10
2023-09-08T01:15:08.760Z,7.13
2023-09-08T01:17:35.824Z,7.30
2023-09-08T01:20:08.729Z,9.17
2023-09-08T01:23:03.963Z,7.50
2023-09-08T01:25:32.639Z,9.20
2023-09-08T01:28:02.550Z,7.67
2023-09-08T01:30:33.822Z,8.10
2023-09-08T01:33:01.206Z,9.77
2023-09-08T01:35:28.571Z,9.20
2023-09-08T01:37:55.338Z,7.63
2023-09-08T01:40:22.881Z,7.20
2023-09-08T01:42:52.753Z,9.40
2023-09-08T01:45:19.736Z,7.53
2023-09-08T01:47:46.625Z,8.03
2023-09-08T01:50:13.565Z,8.03
2023-09-08T01:52:40.352Z,7.80
2023-09-08T01:55:08.860Z,8.07
2023-09-08T01:57:35.926Z,8.10
2023-09-08T02:06:35.514Z,7.20
2023-09-08T02:09:02.385Z,7.10
2023-09-08T02:11:29.302Z,7.43
2023-09-08T02:14:01.879Z,7.10
2023-09-08T02:16:29.746Z,7.70
2023-09-08T02:18:56.740Z,7.53
2023-09-08T02:21:23.672Z,8.10
2023-09-08T02:23:50.585Z,7.00
2023-09-08T02:26:17.533Z,7.60
2023-09-08T02:28:44.431Z,7.77
2023-09-08T02:31:11.803Z,8.33
2023-09-08T02:33:38.711Z,10.77
2023-09-08T02:36:07.091Z,9.23
2023-09-08T02:38:36.561Z,8.60
2023-09-08T02:41:03.624Z,7.73
2023-09-08T02:43:31.624Z,8.50
2023-09-08T02:45:59.102Z,7.43
2023-09-08T02:48:26.510Z,7.30
2023-09-08T02:51:10.332Z,8.17
2023-09-08T02:53:37.245Z,8.10
2023-09-08T02:56:06.639Z,7.30
2023-09-08T02:58:36.554Z,8.33
2023-09-08T03:01:17.653Z,6.93
2023-09-08T03:03:45.154Z,9.20
2023-09-08T03:06:12.811Z,8.63
2023-09-08T03:08:39.828Z,7.40
2023-09-08T03:11:07.116Z,13.80
2023-09-08T03:13:37.764Z,7.00
2023-09-08T03:16:08.964Z,8.40
2023-09-08T03:18:38.071Z,7.60
2023-09-08T03:21:10.749Z,7.77
2023-09-08T03:23:42.518Z,8.47
2023-09-08T03:26:10.286Z,13.70
2023-09-08T03:28:38.831Z,9.20
2023-09-08T03:31:07.194Z,7.47
2023-09-08T03:33:34.490Z,8.20
2023-09-08T03:36:02.191Z,7.43
2023-09-08T03:38:29.209Z,7.47
2023-09-08T03:40:56.210Z,7.93
2023-09-08T03:43:23.302Z,7.40
2023-09-08T03:45:50.308Z,7.80
2023-09-08T03:48:17.407Z,7.17
2023-09-08T03:50:46.618Z,8.63
2023-09-08T03:53:14.366Z,8.17
2023-09-08T03:55:41.514Z,7.40
2023-09-08T03:58:08.458Z,7.57
2023-09-08T04:00:36.537Z,7.10
2023-09-08T04:03:03.887Z,9.83
2023-09-08T04:05:30.968Z,7.37
2023-09-08T04:07:57.907Z,7.97
2023-09-08T04:10:24.934Z,9.30
2023-09-08T04:12:55.844Z,8.60
2023-09-08T04:15:23.121Z,7.37
2023-09-08T04:17:50.141Z,7.40
2023-09-08T04:20:17.586Z,8.20
2023-09-08T04:22:44.684Z,7.27
2023-09-08T04:25:12.660Z,8.00
2023-09-08T04:27:39.731Z,9.23
2023-09-08T04:30:08.011Z,9.87
2023-09-08T04:32:35.183Z,8.50
2023-09-08T04:35:02.363Z,8.53
2023-09-08T04:37:29.260Z,8.70
2023-09-08T04:39:56.213Z,6.80
2023-09-08T04:42:24.394Z,8.83
2023-09-08T04:44:51.364Z,9.67
2023-09-08T04:47:18.315Z,8.13
2023-09-08T04:49:45.460Z,8.90
2023-09-08T04:52:12.685Z,9.03
2023-09-08T04:54:40.572Z,7.57
2023-09-08T04:57:20.236Z,9.10
2023-09-08T04:59:50.599Z,7.27
2023-09-08T05:02:19.576Z,7.03
2023-09-08T05:04:46.722Z,8.47
2023-09-08T05:07:14.787Z,9.50
2023-09-08T05:09:42.121Z,8.20
2023-09-08T05:12:09.209Z,8.40
2023-09-08T05:14:36.189Z,8.90
2023-09-08T05:17:03.245Z,8.37
2023-09-08T05:19:30.473Z,8.30
2023-09-08T05:21:57.660Z,11.53
2023-09-08T05:24:26.958Z,9.27
2023-09-08T05:26:54.521Z,9.07
2023-09-08T05:29:21.635Z,8.40
2023-09-08T05:31:48.655Z,10.57
2023-09-08T05:34:15.751Z,8.93
2023-09-08T05:36:43.789Z,9.30
2023-09-08T05:39:11.986Z,8.77
2023-09-08T05:41:38.959Z,9.17
2023-09-08T05:44:06.238Z,9.73
2023-09-08T05:46:33.719Z,8.60
2023-09-08T05:49:00.810Z,13.63
2023-09-08T05:51:27.987Z,8.60
2023-09-08T05:53:55.063Z,9.07
2023-09-08T05:56:22.321Z,10.40
2023-09-08T05:58:52.217Z,8.87
2023-09-08T06:01:21.679Z,15.33
2023-09-08T06:06:16.729Z,9.90
2023-09-08T06:08:43.818Z,15.97
2023-09-08T06:11:10.935Z,10.83
2023-09-08T06:13:37.957Z,9.07
2023-09-08T06:16:05.165Z,12.33
2023-09-08T06:18:32.798Z,10.60
2023-09-08T06:21:00.197Z,9.93
2023-09-08T06:23:27.205Z,10.70
2023-09-08T06:26:01.342Z,12.20
2023-09-08T06:28:29.070Z,10.90
2023-09-08T06:30:59.602Z,11.77
2023-09-08T06:33:26.747Z,10.30
2023-09-08T06:35:55.177Z,10.70
2023-09-08T06:38:22.267Z,10.77
2023-09-08T06:40:49.470Z,8.80
2023-09-08T06:43:16.661Z,10.13
2023-09-08T06:45:43.702Z,10.33
2023-09-08T06:48:10.778Z,10.00
2023-09-08T06:50:43.199Z,10.37
2023-09-08T06:53:10.487Z,10.80
2023-09-08T06:55:37.295Z,10.40
2023-09-08T06:58:04.753Z,10.07
2023-09-08T07:00:31.974Z,8.63
2023-09-08T07:02:58.967Z,10.33
2023-09-08T07:05:26.015Z,10.13
2023-09-08T07:07:52.971Z,9.27
2023-09-08T07:10:21.445Z,9.73
2023-09-08T07:12:49.448Z,11.50
2023-09-08T07:15:16.513Z,10.70
2023-09-08T07:17:46.661Z,10.67
2023-09-08T07:20:13.646Z,10.60
2023-09-08T07:22:41.006Z,9.67
2023-09-08T07:25:08.691Z,9.90
2023-09-08T07:27:36.026Z,10.50
2023-09-08T07:30:03.499Z,10.37
2023-09-08T07:32:30.738Z,10.67
2023-09-08T07:34:58.119Z,14.50
2023-09-08T07:37:25.667Z,10.20
2023-09-08T07:39:53.074Z,10.53
2023-09-08T07:42:20.442Z,10.17
2023-09-08T07:44:47.792Z,13.03
2023-09-08T07:47:14.803Z,11.30
2023-09-08T07:49:47.945Z,11.47
2023-09-08T07:52:15.110Z,11.13
2023-09-08T07:54:42.170Z,9.20
2023-09-08T07:57:09.180Z,10.80
2023-09-08T07:59:38.069Z,11.13
2023-09-08T08:02:05.575Z,10.80
2023-09-08T08:04:32.634Z,9.70
2023-09-08T08:06:59.717Z,10.23
2023-09-08T08:09:27.909Z,9.23
2023-09-08T08:11:55.019Z,10.37
2023-09-08T08:14:22.225Z,10.20
2023-09-08T08:16:49.187Z,10.37
2023-09-08T08:19:16.224Z,9.50
2023-09-08T08:21:43.712Z,9.37
2023-09-08T08:24:11.505Z,9.80
2023-09-08T08:26:55.167Z,9.93
2023-09-08T08:29:22.206Z,9.80
2023-09-08T08:31:49.644Z,10.20
2023-09-08T08:34:17.231Z,9.40
2023-09-08T08:36:44.276Z,9.57
2023-09-08T08:39:12.250Z,8.33
2023-09-08T08:41:40.801Z,10.30
2023-09-08T08:44:09.230Z,9.80
2023-09-08T08:46:38.473Z,9.77
2023-09-08T08:49:06.072Z,16.27
2023-09-08T08:51:33.998Z,19.67
2023-09-08T08:54:05.514Z,18.10
2023-09-08T08:56:34.018Z,12.83
2023-09-08T08:59:03.112Z,9.40
2023-09-08T09:01:30.854Z,12.77
2023-09-08T09:03:58.689Z,8.40
2023-09-08T09:06:25.925Z,8.97
2023-09-08T09:08:52.844Z,8.33
2023-09-08T09:11:20.072Z,8.70
2023-09-08T09:13:46.942Z,8.73
2023-09-08T09:16:14.346Z,9.27
2023-09-08T09:19:10.607Z,7.83
2023-09-08T09:21:43.266Z,7.50
2023-09-08T09:24:20.976Z,8.13
2023-09-08T09:26:54.262Z,8.70
2023-09-08T09:29:21.586Z,8.93
2023-09-08T09:31:54.379Z,8.80
2023-09-08T09:36:55.043Z,8.67
2023-09-08T09:39:23.326Z,8.63
2023-09-08T09:41:54.063Z,7.63
2023-09-08T09:44:22.588Z,8.73
2023-09-08T09:46:52.427Z,7.87
2023-09-08T09:49:20.533Z,8.37
2023-09-08T09:51:51.980Z,7.97
2023-09-08T09:54:19.258Z,8.70
2023-09-08T09:56:51.013Z,7.67
2023-09-08T09:59:19.325Z,9.10
2023-09-08T10:01:47.319Z,8.50
2023-09-08T10:04:16.838Z,7.33
2023-09-08T10:06:46.263Z,9.23
2023-09-08T10:09:14.918Z,8.43
2023-09-08T10:11:51.258Z,7.70
2023-09-08T10:14:19.353Z,8.73
2023-09-08T10:16:50.712Z,10.57
2023-09-08T10:19:18.988Z,12.67
2023-09-08T10:21:56.676Z,7.47
2023-09-08T10:24:27.488Z,9.20
2023-09-08T10:27:06.092Z,9.83
2023-09-08T10:29:35.632Z,8.23
2023-09-08T10:32:03.832Z,9.67
2023-09-08T10:34:33.940Z,10.00
2023-09-08T10:37:01.124Z,10.97
2023-09-08T10:39:40.455Z,10.33
2023-09-08T10:42:20.476Z,10.67
2023-09-08T10:44:51.230Z,9.00
2023-09-08T10:47:27.512Z,8.07
2023-09-08T10:50:00.371Z,7.77
2023-09-08T10:52:28.876Z,10.30
2023-09-08T10:54:57.334Z,9.83
2023-09-08T10:57:26.425Z,7.27
2023-09-08T11:00:00.931Z,7.53
2023-09-08T11:02:41.806Z,10.20
2023-09-08T11:05:11.423Z,9.13
2023-09-08T11:07:39.519Z,10.53
2023-09-08T11:10:07.688Z,12.10
2023-09-08T11:12:35.097Z,8.20
2023-09-08T11:15:08.764Z,9.23
2023-09-08T11:17:37.611Z,8.67
2023-09-08T11:20:10.283Z,9.50
2023-09-08T11:22:42.134Z,10.77
2023-09-08T11:25:12.255Z,10.03
2023-09-08T11:27:41.129Z,10.70
2023-09-08T11:30:09.549Z,8.80
2023-09-08T11:32:37.319Z,10.90
2023-09-08T11:35:09.996Z,8.43
2023-09-08T11:37:42.508Z,8.40
2023-09-08T11:40:13.900Z,10.40
2023-09-08T11:42:45.703Z,11.60
2023-09-08T11:45:19.450Z,9.50
2023-09-08T11:47:46.696Z,9.07
2023-09-08T11:50:17.014Z,8.77
2023-09-08T11:52:50.299Z,8.33
2023-09-08T11:55:18.158Z,10.37
2023-09-08T11:57:48.425Z,9.37
2023-09-08T12:00:18.665Z,8.90
2023-09-08T12:02:46.970Z,10.27
2023-09-08T12:05:21.243Z,8.33
2023-09-08T12:07:48.894Z,7.87
2023-09-08T12:10:16.044Z,8.80
2023-09-08T12:12:47.762Z,9.07
2023-09-08T12:15:33.087Z,8.83
2023-09-08T12:18:00.932Z,9.40
2023-09-08T12:20:28.201Z,9.60
2023-09-08T12:22:55.258Z,9.67
2023-09-08T12:25:22.610Z,9.93
2023-09-08T12:27:53.001Z,8.90
2023-09-08T12:30:22.692Z,9.03
2023-09-08T12:32:50.518Z,8.93
2023-09-08T12:35:26.316Z,9.03
2023-09-08T12:38:06.933Z,9.10
2023-09-08T12:40:38.568Z,9.87
2023-09-08T12:43:14.079Z,11.23
2023-09-08T12:45:53.503Z,8.70
2023-09-08T12:48:20.414Z,10.10
2023-09-08T12:50:49.280Z,8.70
2023-09-08T12:53:19.803Z,9.20
2023-09-08T12:55:47.707Z,8.50
2023-09-08T12:58:14.826Z,9.70
2023-09-08T13:00:53.681Z,9.30
2023-09-08T13:03:20.723Z,9.53
2023-09-08T13:05:47.682Z,9.10
2023-09-08T13:08:16.661Z,8.70
2023-09-08T13:10:46.217Z,9.13
2023-09-08T13:13:13.170Z,10.73
2023-09-08T13:18:37.005Z,9.80
2023-09-08T13:21:06.328Z,8.90
2023-09-08T13:23:33.161Z,9.90
2023-09-08T13:26:02.512Z,9.47
2023-09-08T13:28:29.498Z,8.63
2023-09-08T13:30:56.481Z,8.50
2023-09-08T13:33:23.756Z,9.00
2023-09-08T13:35:50.732Z,8.77
2023-09-08T13:38:17.721Z,8.50
2023-09-08T13:40:44.975Z,9.80
2023-09-08T13:43:12.514Z,9.50
2023-09-08T13:45:39.596Z,12.40
2023-09-08T13:48:07.934Z,8.73
2023-09-08T13:50:37.304Z,8.47
2023-09-08T13:53:05.230Z,10.83
2023-09-08T13:58:03.249Z,7.80
2023-09-08T14:00:32.479Z,10.30
2023-09-08T14:03:00.435Z,8.00
2023-09-08T14:05:36.903Z,7.90
2023-09-08T14:08:08.434Z,8.17
2023-09-08T14:10:51.843Z,8.50
2023-09-08T14:13:20.668Z,10.97
2023-09-08T14:15:47.677Z,8.03
2023-09-08T14:18:15.708Z,8.47
2023-09-08T14:20:43.828Z,7.80
2023-09-08T14:23:11.133Z,7.90
2023-09-08T14:25:38.284Z,8.50
2023-09-08T14:28:07.000Z,9.00
2023-09-08T14:30:36.613Z,8.17
2023-09-08T14:33:04.388Z,8.97
2023-09-08T14:35:32.117Z,7.63
2023-09-08T14:37:59.161Z,10.80
2023-09-08T14:40:26.161Z,8.50
2023-09-08T14:42:54.821Z,7.40
2023-09-08T14:45:22.129Z,8.13
2023-09-08T14:47:49.124Z,8.13
2023-09-08T14:50:16.954Z,7.80
2023-09-08T14:52:43.860Z,8.97
2023-09-08T14:55:10.745Z,8.67
2023-09-08T14:57:37.969Z,8.07
2023-09-08T15:00:05.855Z,9.00
2023-09-08T15:02:33.138Z,8.27
2023-09-08T15:05:00.059Z,8.20
2023-09-08T15:07:27.035Z,8.13
2023-09-08T15:09:54.066Z,9.03
2023-09-08T15:12:21.028Z,9.00
2023-09-08T15:14:47.939Z,7.90
2023-09-08T15:17:14.899Z,8.43
2023-09-08T15:19:41.874Z,7.60
2023-09-08T15:22:08.915Z,8.77
2023-09-08T15:24:35.924Z,8.63
2023-09-08T15:27:03.715Z,7.70
2023-09-08T15:29:30.876Z,8.50
2023-09-08T15:31:58.547Z,8.67
2023-09-08T15:34:27.465Z,8.40
2023-09-08T15:36:54.691Z,9.30
2023-09-08T15:39:22.255Z,8.20
2023-09-08T15:41:49.296Z,7.93
2023-09-08T15:44:16.544Z,7.60
2023-09-08T15:46:43.975Z,7.70
2023-09-08T15:49:12.080Z,8.03
2023-09-08T15:51:39.182Z,7.73
2023-09-08T15:54:07.366Z,8.50
2023-09-08T15:56:34.305Z,7.23
2023-09-08T15:59:03.348Z,7.33
2023-09-08T16:01:30.380Z,8.90
2023-09-08T16:03:57.648Z,8.40
2023-09-08T16:06:25.566Z,9.43
2023-09-08T16:08:52.585Z,7.87
2023-09-08T16:11:19.377Z,8.03
2023-09-08T16:13:46.675Z,8.63
2023-09-08T16:16:15.922Z,11.60
2023-09-08T16:18:43.127Z,7.80
2023-09-08T16:21:09.954Z,8.87
2023-09-08T16:23:37.869Z,8.03
2023-09-08T16:26:05.169Z,8.57
2023-09-08T16:28:36.342Z,8.53
2023-09-08T16:31:07.657Z,8.47
2023-09-08T16:33:36.222Z,8.97
2023-09-08T16:36:03.737Z,11.47
2023-09-08T16:38:30.676Z,8.23
2023-09-08T16:40:59.135Z,9.13
2023-09-08T16:43:33.103Z,7.80
2023-09-08T16:46:00.059Z,8.47
2023-09-08T16:48:27.167Z,8.40
2023-09-08T16:50:54.142Z,8.00
2023-09-08T16:53:21.411Z,8.97
2023-09-08T16:55:48.776Z,8.07
2023-09-08T16:58:15.739Z,9.07
2023-09-08T17:00:42.646Z,8.40
2023-09-08T17:03:26.130Z,10.07
2023-09-08T17:05:53.084Z,10.23
2023-09-08T17:08:20.178Z,9.63
2023-09-08T17:10:49.121Z,8.80
2023-09-08T17:13:16.207Z,9.30
2023-09-08T17:15:43.419Z,9.20
2023-09-08T17:18:10.562Z,9.83
2023-09-08T17:20:37.629Z,10.60
2023-09-08T17:23:06.505Z,9.03
2023-09-08T17:25:33.491Z,9.07
2023-09-08T17:28:00.358Z,11.20
2023-09-08T17:30:27.198Z,11.20
2023-09-08T17:32:54.188Z,11.07
2023-09-08T17:35:21.101Z,10.30
2023-09-08T17:37:49.076Z,11.37
2023-09-08T17:40:16.127Z,10.20
2023-09-08T17:42:43.092Z,11.87
2023-09-08T17:45:10.735Z,11.07
2023-09-08T17:47:37.675Z,11.43
2023-09-08T17:50:05.109Z,11.90
2023-09-08T17:52:32.255Z,10.73
2023-09-08T17:55:02.481Z,11.80
2023-09-08T17:57:29.418Z,12.40
2023-09-08T17:59:56.635Z,10.13
2023-09-08T18:02:23.733Z,11.80
2023-09-08T18:04:51.472Z,11.23
2023-09-08T18:07:18.669Z,12.10
2023-09-08T18:09:45.732Z,10.90
2023-09-08T18:12:12.748Z,10.83
2023-09-08T18:14:39.712Z,12.47
2023-09-08T18:17:06.756Z,12.60
2023-09-08T18:19:37.085Z,11.30
2023-09-08T18:22:04.913Z,11.47
2023-09-08T18:24:33.223Z,12.27
2023-09-08T18:27:02.391Z,13.03
2023-09-08T18:29:34.580Z,12.23
2023-09-08T18:32:02.191Z,12.07
2023-09-08T18:34:29.994Z,11.70
2023-09-08T18:36:57.068Z,11.90
2023-09-08T18:39:24.831Z,13.70
2023-09-08T18:41:51.861Z,15.00
2023-09-08T18:44:18.898Z,11.13
2023-09-08T18:46:46.283Z,12.33
2023-09-08T18:49:14.485Z,11.73
2023-09-08T18:51:42.248Z,12.07
2023-09-08T18:54:09.335Z,12.60
2023-09-08T18:56:36.674Z,16.33
2023-09-08T18:59:04.049Z,14.73
2023-09-08T19:01:31.199Z,13.10
2023-09-08T19:03:58.639Z,13.50
2023-09-08T19:06:26.038Z,14.60
2023-09-08T19:08:53.268Z,14.60
2023-09-08T19:11:21.722Z,15.77
2023-09-08T19:13:48.840Z,14.77
2023-09-08T19:16:17.974Z,14.70
2023-09-08T19:18:45.110Z,15.03
2023-09-08T19:21:12.237Z,14.90
2023-09-08T19:23:39.316Z,15.27
2023-09-08T19:26:10.020Z,13.90
2023-09-08T19:28:41.174Z,14.40
2023-09-08T19:33:48.839Z,15.73
2023-09-08T19:40:02.882Z,15.03
2023-09-08T19:42:33.099Z,15.00
2023-09-08T19:45:00.157Z,14.90
2023-09-08T19:47:27.530Z,14.50
2023-09-08T19:49:54.709Z,13.87
2023-09-08T19:52:26.415Z,16.93
2023-09-08T19:54:54.139Z,15.70
2023-09-08T19:57:21.505Z,15.23
2023-09-08T19:59:50.240Z,14.27
2023-09-08T20:02:17.757Z,16.53
2023-09-08T20:04:46.646Z,14.97
2023-09-08T20:07:15.586Z,15.97
2023-09-08T20:09:42.921Z,15.20
2023-09-08T20:12:17.132Z,18.80
2023-09-08T21:19:28.217Z,18.20
2023-09-08T21:21:55.576Z,20.60
2023-09-08T21:24:23.067Z,16.80
2023-09-08T21:26:51.010Z,18.00
2023-09-08T21:29:18.177Z,19.07
2023-09-08T21:31:49.859Z,20.07
2023-09-08T21:34:19.776Z,18.17
2023-09-08T21:36:47.789Z,20.20
2023-09-08T21:39:15.337Z,18.27
2023-09-08T21:41:42.310Z,19.37
2023-09-08T21:44:09.573Z,18.57
2023-09-08T21:46:36.702Z,17.97
2023-09-08T21:49:03.972Z,17.20
2023-09-08T21:51:31.025Z,16.97
2023-09-08T21:53:58.153Z,16.60
2023-09-08T21:56:26.474Z,16.27
2023-09-08T21:58:53.443Z,16.80
2023-09-08T22:01:20.502Z,14.67
2023-09-08T22:03:47.568Z,16.50
2023-09-08T22:06:15.015Z,19.30
2023-09-08T22:08:41.964Z,15.70
2023-09-08T22:11:09.047Z,18.00
2023-09-08T22:13:37.599Z,16.87
2023-09-08T22:16:05.619Z,20.53
2023-09-08T22:18:35.940Z,16.80
2023-09-08T22:21:03.862Z,17.93
2023-09-08T22:23:34.244Z,16.77
2023-09-08T22:26:01.507Z,15.23
2023-09-08T22:28:28.506Z,16.33
2023-09-08T22:30:55.415Z,16.17
2023-09-08T22:33:22.420Z,15.37
2023-09-08T22:35:53.815Z,15.10
2023-09-08T22:38:21.042Z,15.83
2023-09-08T22:40:48.283Z,14.67
2023-09-08T22:43:15.408Z,16.00
2023-09-08T22:45:45.370Z,13.93
2023-09-08T22:48:12.457Z,14.00
2023-09-08T22:50:39.443Z,15.07
2023-09-08T22:53:08.154Z,15.77
2023-09-08T22:59:25.492Z,15.10
2023-09-08T23:01:52.453Z,15.80
2023-09-08T23:04:26.034Z,14.50
2023-09-08T23:06:52.990Z,14.80
2023-09-08T23:09:19.931Z,14.17
2023-09-08T23:11:50.330Z,15.33
2023-09-08T23:14:17.899Z,15.67
2023-09-08T23:16:45.845Z,15.00
2023-09-08T23:19:14.810Z,15.37
2023-09-08T23:21:44.898Z,14.83
2023-09-08T23:24:15.326Z,14.83
2023-09-08T23:26:42.681Z,15.17
2023-09-08T23:29:09.717Z,16.20
2023-09-08T23:31:38.700Z,14.33
2023-09-08T23:34:09.656Z,15.63
2023-09-08T23:36:36.611Z,15.40
2023-09-08T23:39:04.631Z,15.20
2023-09-08T23:41:32.754Z,14.83
2023-09-08T23:44:00.368Z,14.80
2023-09-08T23:46:27.395Z,14.07
2023-09-08T23:48:57.498Z,15.97
2023-09-08T23:51:25.006Z,14.77
2023-09-08T23:53:54.840Z,15.20
2023-09-08T23:56:21.770Z,17.03
2023-09-08T23:58:49.093Z,16.53
